Auburndale, Massachusetts
Current Conditions -  °F | °C
As of 6:54 PM on Friday 31 Oct 2014 (Local Time) from KBOS Reporting Station
Overcast Overcast  
Wind Chill: 50°   Ceiling: 6500
Heat Index: 50°   Visibility: 10mi
Dew Point: 37°   Wind: 14mph
Humidity: 61%   Direction: 60°ENE
Pressure: 30.02"   Gusts: NA
Location:  42.35°N, 70.95°W
Report Text: KBOS 312254Z 06012KT 10SM FEW032 BKN065 OVC250 10/03 A3002 RMK AO2 SLP164 T01000028
Loading
Personal Weather Stations






























Interactive Weather Map
Tropical Storm Tracking
New forecast layout! Learn more

10-Day Weather Forecast

Advertisements
Track Severe Weather on mobile